East Wallingford, Vermont
Current Conditions -  °F | °C
As of 12:08 PM on Tuesday 27 Jan 2015 (Local Time) from KVSF Reporting Station
Light Snow Light Snow  
Wind Chill:   Ceiling: 3000
Heat Index: 15°   Visibility: 2mi
Dew Point:   Wind: 8mph
Humidity: 68%   Direction: 30°NNE
Pressure: 29.67"   Gusts: 18mph
Location:  43.45°N, 72.88°W
Report Text: KVSF 271708Z AUTO 03007G16KT 360V080 2SM -SN BKN030 OVC040 M09/M14 A2967 RMK AO2 P0000 T10941144 TSNO
Loading
Personal Weather Stations






























Interactive Weather Map New forecast layout! Learn more

10-Day Weather Forecast

Advertisements
Track Severe Weather on mobile